Time;durP1;ratioP1;P1;durP2;ratioP2;P2;SDS_P1;SDS_P2;PMS_P1;PMS_P2;Temp;Humidity;BMP_temperature;BMP_pressure;BME280_temperature;BME280_humidity;BME280_pressure;Samples;Min_cycle;Max_cycle;Signal;HPM_P1;HPM_P2
2022/10/24 00:02:02;;;;;;;8.35;1.90;;;14.30;99.90;;;;;;5026610;28;20049;-76
2022/10/24 00:04:28;;;;;;;5.68;1.73;;;14.30;99.90;;;;;;5032404;28;20166;-75
2022/10/24 00:06:55;;;;;;;3.92;1.70;;;14.30;99.90;;;;;;5029404;28;20049;-74
2022/10/24 00:09:21;;;;;;;4.70;1.65;;;14.30;99.90;;;;;;5048243;28;20146;-74
2022/10/24 00:11:46;;;;;;;9.73;1.63;;;14.30;99.90;;;;;;5019749;28;20514;-75
2022/10/24 00:14:12;;;;;;;2.90;1.50;;;14.40;99.90;;;;;;5047163;28;20138;-74
2022/10/24 00:16:38;;;;;;;2.85;1.52;;;14.40;99.90;;;;;;5046251;28;20186;-74
2022/10/24 00:19:03;;;;;;;3.95;1.75;;;14.40;99.90;;;;;;5023377;28;20521;-74
2022/10/24 00:21:29;;;;;;;6.57;2.13;;;14.50;99.90;;;;;;5048124;28;20733;-74
2022/10/24 00:23:55;;;;;;;5.07;1.63;;;14.50;99.90;;;;;;5012672;28;20045;-73
2022/10/24 00:26:20;;;;;;;5.20;1.52;;;14.50;99.90;;;;;;5023665;28;20041;-76
2022/10/24 00:28:46;;;;;;;5.47;1.67;;;14.50;99.90;;;;;;5014987;28;20190;-73
2022/10/24 00:31:14;;;;;;;3.25;1.75;;;14.50;99.90;;;;;;5049561;28;20052;-73
2022/10/24 00:33:40;;;;;;;2.92;1.50;;;14.50;99.90;;;;;;5030900;28;20098;-73
2022/10/24 00:36:13;;;;;;;5.70;1.80;;;14.50;99.90;;;;;;5014831;28;20053;-73
2022/10/24 00:38:38;;;;;;;5.28;2.00;;;14.60;99.90;;;;;;5016029;28;20165;-73
2022/10/24 00:41:04;;;;;;;5.88;1.90;;;14.60;99.90;;;;;;5015249;28;20435;-73
2022/10/24 00:43:31;;;;;;;5.82;2.30;;;14.60;99.90;;;;;;5031345;28;20111;-73
2022/10/24 00:46:01;;;;;;;7.82;1.58;;;14.60;99.90;;;;;;5048651;28;20053;-74
2022/10/24 00:48:30;;;;;;;5.00;2.10;;;14.70;99.90;;;;;;5008272;28;20478;-74
2022/10/24 00:51:10;;;;;;;6.72;2.30;;;14.70;99.90;;;;;;5048638;28;20064;-74
2022/10/24 00:53:39;;;;;;;7.57;2.38;;;14.70;99.90;;;;;;5026958;28;20049;-75
2022/10/24 00:56:05;;;;;;;7.30;2.72;;;14.70;99.90;;;;;;5047687;28;20052;-74
2022/10/24 00:58:32;;;;;;;6.22;2.60;;;14.80;99.90;;;;;;5015500;28;20377;-74
2022/10/24 01:00:58;;;;;;;6.80;2.53;;;14.90;99.90;;;;;;5005724;28;20043;-74
2022/10/24 01:03:24;;;;;;;5.57;2.38;;;14.90;99.90;;;;;;5027580;28;20382;-74
2022/10/24 01:06:16;;;;;;;5.38;2.00;;;14.90;99.90;;;;;;5029029;28;20826;-74
2022/10/24 01:08:53;;;;;;;5.90;2.40;;;14.90;99.90;;;;;;5042037;28;20128;-74
2022/10/24 01:11:32;;;;;;;9.80;2.28;;;15.00;99.90;;;;;;5004364;28;20045;-75
2022/10/24 01:14:10;;;;;;;9.48;2.70;;;14.90;99.90;;;;;;5038035;28;20060;-75
2022/10/24 01:16:49;;;;;;;6.57;2.28;;;15.00;99.90;;;;;;5039347;28;20080;-75
2022/10/24 01:19:38;;;;;;;6.10;1.98;;;15.00;99.90;;;;;;5043004;28;20596;-74
2022/10/24 01:22:20;;;;;;;9.38;2.50;;;15.00;99.90;;;;;;5042122;28;20091;-74
2022/10/24 01:25:11;;;;;;;6.05;2.60;;;15.00;99.90;;;;;;5033477;28;20041;-74
2022/10/24 01:27:42;;;;;;;7.43;2.50;;;15.00;99.90;;;;;;5031166;28;20060;-74
2022/10/24 01:30:10;;;;;;;7.03;2.40;;;14.90;99.90;;;;;;5024991;28;20049;-75
2022/10/24 01:32:40;;;;;;;9.40;3.03;;;14.90;99.90;;;;;;5030236;28;20426;-74
2022/10/24 01:35:15;;;;;;;8.43;2.85;;;15.00;99.90;;;;;;5026642;28;20761;-74
2022/10/24 01:38:01;;;;;;;11.75;3.00;;;15.00;99.90;;;;;;5046506;28;20119;-74
2022/10/24 01:40:49;;;;;;;10.68;3.17;;;15.00;99.90;;;;;;5036495;28;20056;-74
2022/10/24 01:43:16;;;;;;;8.95;2.92;;;15.00;99.90;;;;;;5039329;28;20037;-74
2022/10/24 01:45:45;;;;;;;9.32;2.90;;;15.00;99.90;;;;;;5047891;28;20067;-74
2022/10/24 01:48:13;;;;;;;8.50;2.75;;;15.00;99.90;;;;;;5017922;28;20513;-73
2022/10/24 01:50:38;;;;;;;10.07;3.38;;;15.00;99.90;;;;;;5024284;28;20048;-74
2022/10/24 01:53:04;;;;;;;11.93;2.85;;;15.00;99.90;;;;;;5031520;28;20041;-73
2022/10/24 01:55:31;;;;;;;7.28;2.58;;;15.00;99.90;;;;;;5030832;28;20048;-74
2022/10/24 01:57:56;;;;;;;7.95;2.63;;;15.10;99.90;;;;;;5008698;28;20048;-74
2022/10/24 02:00:22;;;;;;;10.15;2.60;;;15.10;99.90;;;;;;5024256;28;20057;-73
2022/10/24 02:02:54;;;;;;;10.88;3.53;;;15.10;99.90;;;;;;5030696;28;20475;-73
2022/10/24 02:05:25;;;;;;;9.02;2.53;;;15.20;99.90;;;;;;5028931;28;20236;-72
2022/10/24 02:07:53;;;;;;;6.95;2.50;;;15.10;99.90;;;;;;5019455;28;20427;-73
2022/10/24 02:10:26;;;;;;;7.88;2.60;;;15.10;99.90;;;;;;5021310;28;20407;-73
2022/10/24 02:12:55;;;;;;;8.13;3.05;;;15.10;99.90;;;;;;5025676;28;20140;-73
2022/10/24 02:15:26;;;;;;;15.73;2.67;;;15.20;99.90;;;;;;5045988;28;20087;-73
2022/10/24 02:17:52;;;;;;;6.28;2.63;;;15.10;99.90;;;;;;5047817;28;20053;-73
2022/10/24 02:20:20;;;;;;;5.07;2.08;;;15.10;99.90;;;;;;5030534;28;20056;-75
2022/10/24 02:22:52;;;;;;;5.43;2.65;;;15.20;99.90;;;;;;5030839;28;20091;-75
2022/10/24 02:25:35;;;;;;;8.68;2.67;;;15.10;99.90;;;;;;5013626;28;20458;-74
2022/10/24 02:28:10;;;;;;;7.80;2.30;;;15.10;99.90;;;;;;5048241;28;20048;-74
2022/10/24 02:30:44;;;;;;;9.32;2.88;;;15.10;99.90;;;;;;5027130;28;20541;-75
2022/10/24 02:33:10;;;;;;;9.68;2.65;;;15.10;99.90;;;;;;5011164;28;20049;-75
2022/10/24 02:35:36;;;;;;;11.48;2.95;;;15.10;99.90;;;;;;5039846;28;20045;-75
2022/10/24 02:38:14;;;;;;;9.55;3.00;;;15.10;99.90;;;;;;5032409;28;20095;-75
2022/10/24 02:40:42;;;;;;;6.90;2.47;;;15.00;99.90;;;;;;5057721;28;20049;-75
2022/10/24 02:43:08;;;;;;;6.03;2.22;;;15.10;99.90;;;;;;5018266;28;20045;-75
2022/10/24 02:45:37;;;;;;;7.43;3.17;;;15.00;99.90;;;;;;5031222;28;20508;-74
2022/10/24 02:48:04;;;;;;;7.72;2.47;;;15.00;99.90;;;;;;5011945;28;20033;-74
2022/10/24 02:50:30;;;;;;;7.50;3.10;;;15.00;99.90;;;;;;5034215;28;20072;-74
2022/10/24 02:52:56;;;;;;;7.43;2.75;;;15.00;99.90;;;;;;5010977;28;20049;-74
2022/10/24 02:55:22;;;;;;;7.65;2.42;;;15.00;99.90;;;;;;5033655;28;20458;-73
2022/10/24 02:57:47;;;;;;;8.07;2.60;;;14.90;99.90;;;;;;5033221;28;20055;-74
2022/10/24 03:00:13;;;;;;;9.80;2.85;;;15.00;99.90;;;;;;5043030;28;20057;-73
2022/10/24 03:02:39;;;;;;;9.43;2.60;;;14.90;99.90;;;;;;5066937;28;20045;-74
2022/10/24 03:05:05;;;;;;;8.18;2.65;;;14.90;99.90;;;;;;5038639;28;20060;-74
2022/10/24 03:07:31;;;;;;;7.20;3.35;;;15.00;99.90;;;;;;5047710;28;20153;-74
2022/10/24 03:09:57;;;;;;;10.05;3.10;;;14.90;99.90;;;;;;5014021;28;20151;-74
2022/10/24 03:12:23;;;;;;;20.50;2.63;;;14.90;99.90;;;;;;5017448;28;20442;-74
2022/10/24 03:14:48;;;;;;;12.20;3.35;;;14.80;99.90;;;;;;5000805;28;20064;-74
2022/10/24 03:17:14;;;;;;;14.95;2.65;;;14.80;99.90;;;;;;5050769;28;21063;-74
2022/10/24 03:19:40;;;;;;;9.90;2.95;;;14.70;99.90;;;;;;5014230;28;20390;-73
2022/10/24 03:22:05;;;;;;;8.70;2.92;;;14.70;99.90;;;;;;5044443;28;20042;-73
2022/10/24 03:24:31;;;;;;;7.55;2.97;;;14.70;99.90;;;;;;5033966;28;20048;-73
2022/10/24 03:26:57;;;;;;;14.25;3.35;;;14.70;99.90;;;;;;5048466;28;20048;-73
2022/10/24 03:29:22;;;;;;;8.40;2.58;;;14.60;99.90;;;;;;5050838;28;20048;-74
2022/10/24 03:31:48;;;;;;;8.48;2.80;;;14.60;99.90;;;;;;5050624;28;20127;-74
2022/10/24 03:34:15;;;;;;;11.05;3.13;;;14.60;99.90;;;;;;5033741;28;20526;-74
2022/10/24 03:36:41;;;;;;;8.25;2.65;;;14.60;99.90;;;;;;5006599;28;20088;-74
2022/10/24 03:39:07;;;;;;;8.20;2.95;;;14.50;99.90;;;;;;5010847;28;20480;-73
2022/10/24 03:41:32;;;;;;;6.80;2.30;;;14.50;99.90;;;;;;5027140;28;20148;-74
2022/10/24 03:43:58;;;;;;;8.68;2.70;;;14.50;99.90;;;;;;5043358;28;20056;-74
2022/10/24 03:46:24;;;;;;;7.38;3.00;;;14.50;99.90;;;;;;5027838;28;20079;-74
2022/10/24 03:48:50;;;;;;;9.45;3.47;;;14.50;99.90;;;;;;5048210;28;20140;-74
2022/10/24 03:51:15;;;;;;;10.43;2.83;;;14.50;99.90;;;;;;5028185;28;20454;-74
2022/10/24 03:53:41;;;;;;;8.18;2.67;;;14.50;99.90;;;;;;5042777;28;20102;-75
2022/10/24 03:56:07;;;;;;;10.57;2.80;;;14.50;99.90;;;;;;5043614;28;20724;-75
2022/10/24 03:58:34;;;;;;;8.70;2.35;;;14.50;99.90;;;;;;5020006;28;20151;-74
2022/10/24 04:01:00;;;;;;;11.23;2.85;;;14.50;99.90;;;;;;5010251;28;20048;-74
2022/10/24 04:03:26;;;;;;;10.13;2.83;;;14.50;99.90;;;;;;5016262;28;20041;-75
2022/10/24 04:05:52;;;;;;;12.02;2.67;;;14.50;99.90;;;;;;5043431;28;20048;-74
2022/10/24 04:08:18;;;;;;;7.38;2.65;;;14.40;99.90;;;;;;5033147;28;20044;-74
2022/10/24 04:10:44;;;;;;;11.13;2.80;;;14.40;99.90;;;;;;5024865;28;20109;-73
2022/10/24 04:13:09;;;;;;;6.07;2.20;;;14.30;99.90;;;;;;5043037;28;20390;-73
2022/10/24 04:15:36;;;;;;;11.27;2.55;;;14.30;99.90;;;;;;5011050;28;20049;-73
2022/10/24 04:18:02;;;;;;;10.10;2.45;;;14.30;99.90;;;;;;5066159;28;20048;-73
2022/10/24 04:20:27;;;;;;;8.50;2.70;;;14.30;99.90;;;;;;5028989;28;20403;-74
2022/10/24 04:22:53;;;;;;;9.65;2.63;;;14.30;99.90;;;;;;5049064;28;20037;-73
2022/10/24 04:25:19;;;;;;;9.45;2.97;;;14.30;99.90;;;;;;5032101;28;20041;-73
2022/10/24 04:27:45;;;;;;;12.25;2.72;;;14.30;99.90;;;;;;5018138;28;20042;-73
2022/10/24 04:30:11;;;;;;;8.20;2.60;;;14.30;99.90;;;;;;5042604;28;20088;-73
2022/10/24 04:32:37;;;;;;;9.60;2.80;;;14.30;99.90;;;;;;5032570;28;20132;-73
2022/10/24 04:35:03;;;;;;;9.55;3.17;;;14.30;99.90;;;;;;5032333;28;20135;-72
2022/10/24 04:37:29;;;;;;;8.57;3.10;;;14.30;99.90;;;;;;5037536;28;20049;-73
2022/10/24 04:39:55;;;;;;;8.68;2.60;;;14.30;99.90;;;;;;5008782;28;20048;-73
2022/10/24 04:42:21;;;;;;;12.63;3.15;;;14.30;99.90;;;;;;5027643;28;20052;-73
2022/10/24 04:44:47;;;;;;;9.95;2.58;;;14.30;99.90;;;;;;5028755;28;20049;-74
2022/10/24 04:47:13;;;;;;;9.90;2.85;;;14.30;99.90;;;;;;5045309;28;20041;-74
2022/10/24 04:49:38;;;;;;;10.55;3.33;;;14.30;99.90;;;;;;5060218;28;20482;-74
2022/10/24 04:52:04;;;;;;;16.38;4.05;;;14.30;99.90;;;;;;5049623;28;20063;-73
2022/10/24 04:54:30;;;;;;;10.40;3.17;;;14.30;99.90;;;;;;5016684;28;20155;-73
2022/10/24 04:56:56;;;;;;;11.15;3.45;;;14.30;99.90;;;;;;5048315;28;20469;-73
2022/10/24 04:59:21;;;;;;;7.85;2.67;;;14.30;99.90;;;;;;5027154;28;20410;-73
2022/10/24 05:01:47;;;;;;;8.00;3.00;;;14.40;99.90;;;;;;5039175;28;20052;-74
2022/10/24 05:04:13;;;;;;;14.23;3.42;;;14.40;99.90;;;;;;5063607;28;20083;-73
2022/10/24 05:06:39;;;;;;;9.52;2.67;;;14.40;99.90;;;;;;5022570;28;20053;-74
2022/10/24 05:09:04;;;;;;;12.27;3.40;;;14.30;99.90;;;;;;4999066;28;20113;-74
2022/10/24 05:11:30;;;;;;;8.93;2.60;;;14.30;99.90;;;;;;5002094;28;20049;-74
2022/10/24 05:13:56;;;;;;;10.48;2.70;;;14.30;99.90;;;;;;5014568;28;20493;-74
2022/10/24 05:16:22;;;;;;;10.10;2.80;;;14.30;99.90;;;;;;5015321;28;20129;-74
2022/10/24 05:18:48;;;;;;;7.75;3.13;;;14.40;99.90;;;;;;5047643;28;20542;-73
2022/10/24 05:21:14;;;;;;;18.88;4.20;;;14.40;99.90;;;;;;5019582;28;20053;-73
2022/10/24 05:23:39;;;;;;;16.92;3.17;;;14.40;99.90;;;;;;5001622;28;20041;-73
2022/10/24 05:26:05;;;;;;;7.90;2.88;;;14.40;99.90;;;;;;5031409;28;20090;-74
2022/10/24 05:28:31;;;;;;;11.55;2.78;;;14.40;99.90;;;;;;5027498;28;20048;-73
2022/10/24 05:30:57;;;;;;;9.25;2.63;;;14.40;99.90;;;;;;5043032;28;20565;-73
2022/10/24 05:33:23;;;;;;;9.95;2.70;;;14.40;99.90;;;;;;5047828;28;20091;-74
2022/10/24 05:35:49;;;;;;;8.73;3.35;;;14.40;99.90;;;;;;5047396;28;20148;-74
2022/10/24 05:38:15;;;;;;;9.00;2.72;;;14.40;99.90;;;;;;5030211;28;20364;-73
2022/10/24 05:40:41;;;;;;;7.30;2.53;;;14.30;99.90;;;;;;5034197;28;20052;-73
2022/10/24 05:43:07;;;;;;;13.60;3.42;;;14.30;99.90;;;;;;5027242;28;20049;-75
2022/10/24 05:45:36;;;;;;;10.48;3.03;;;14.30;99.90;;;;;;5026500;28;20049;-74
2022/10/24 05:48:01;;;;;;;10.20;3.30;;;14.30;99.90;;;;;;5024252;28;20049;-74
2022/10/24 05:50:28;;;;;;;10.85;2.58;;;14.30;99.90;;;;;;5024400;28;20056;-74
2022/10/24 05:52:54;;;;;;;8.82;2.90;;;14.30;99.90;;;;;;5047026;28;20048;-73
2022/10/24 05:55:20;;;;;;;10.60;3.15;;;14.30;99.90;;;;;;5026125;28;20049;-74
2022/10/24 05:57:46;;;;;;;7.85;3.42;;;14.30;99.90;;;;;;5009098;28;20083;-71
2022/10/24 06:00:12;;;;;;;10.05;3.13;;;14.30;99.90;;;;;;5007320;28;20049;-71
2022/10/24 06:02:38;;;;;;;10.95;3.20;;;14.30;99.90;;;;;;5029452;28;20095;-71
2022/10/24 06:05:05;;;;;;;11.00;3.40;;;14.30;99.90;;;;;;5009152;28;20154;-71
2022/10/24 06:07:30;;;;;;;11.85;3.28;;;14.30;99.90;;;;;;5017914;28;20486;-71
2022/10/24 06:09:56;;;;;;;10.13;3.13;;;14.30;99.90;;;;;;5042518;28;20071;-71
2022/10/24 06:12:22;;;;;;;11.20;3.25;;;14.30;99.90;;;;;;5048910;28;20063;-71
2022/10/24 06:14:48;;;;;;;11.05;3.10;;;14.30;99.90;;;;;;5029634;28;20064;-70
2022/10/24 06:17:14;;;;;;;11.63;3.17;;;14.30;99.90;;;;;;5049655;28;20064;-71
2022/10/24 06:19:41;;;;;;;14.80;5.18;;;14.30;99.90;;;;;;5033738;28;20164;-71
2022/10/24 06:22:06;;;;;;;9.68;3.13;;;14.30;99.90;;;;;;5020759;28;20647;-69
2022/10/24 06:24:36;;;;;;;11.48;3.53;;;14.20;99.90;;;;;;5009328;28;20163;-69
2022/10/24 06:27:03;;;;;;;15.30;3.75;;;14.30;99.90;;;;;;5051462;28;20128;-69
2022/10/24 06:29:29;;;;;;;12.45;3.53;;;14.30;99.90;;;;;;5050471;28;20044;-70
2022/10/24 06:31:54;;;;;;;7.65;3.25;;;14.30;99.90;;;;;;5032583;28;20050;-69
2022/10/24 06:34:20;;;;;;;11.25;3.70;;;14.30;99.90;;;;;;5034246;28;20053;-68
2022/10/24 06:36:46;;;;;;;10.38;3.47;;;14.30;99.90;;;;;;5013060;28;20048;-69
2022/10/24 06:39:12;;;;;;;8.70;3.13;;;14.40;99.90;;;;;;5049579;28;20048;-69
2022/10/24 06:41:38;;;;;;;10.38;3.28;;;14.40;99.90;;;;;;5034374;28;20044;-69
2022/10/24 06:44:04;;;;;;;8.35;3.33;;;14.40;99.90;;;;;;5031399;28;20124;-69
2022/10/24 06:46:29;;;;;;;13.77;3.72;;;14.50;99.90;;;;;;5031101;28;20049;-71
2022/10/24 06:48:55;;;;;;;8.40;2.95;;;14.50;99.90;;;;;;5033468;28;20051;-71
2022/10/24 06:51:22;;;;;;;15.82;3.67;;;14.50;99.90;;;;;;5043405;28;20063;-71
2022/10/24 06:53:48;;;;;;;17.73;3.80;;;14.50;99.90;;;;;;5048807;28;20076;-71
2022/10/24 06:56:13;;;;;;;11.88;3.55;;;14.50;99.90;;;;;;5017923;28;20137;-71
2022/10/24 06:58:39;;;;;;;10.98;3.15;;;14.50;99.90;;;;;;5049322;28;20142;-72
2022/10/24 07:01:10;;;;;;;13.75;4.15;;;14.50;99.90;;;;;;5033790;28;20045;-71
2022/10/24 07:03:35;;;;;;;13.02;3.50;;;14.50;99.90;;;;;;5010750;28;20079;-71
2022/10/24 07:06:17;;;;;;;9.65;3.40;;;14.50;99.90;;;;;;5045752;28;20152;-71
2022/10/24 07:08:43;;;;;;;17.98;5.15;;;14.60;99.90;;;;;;5045085;28;20061;-71
2022/10/24 07:11:09;;;;;;;14.07;5.40;;;14.50;99.90;;;;;;5032510;28;20118;-72
2022/10/24 07:13:35;;;;;;;14.20;3.67;;;14.60;99.90;;;;;;5013773;28;20050;-71
2022/10/24 07:16:01;;;;;;;16.60;3.85;;;14.60;99.90;;;;;;5010996;28;20218;-71
2022/10/24 07:18:26;;;;;;;14.50;3.55;;;14.60;99.90;;;;;;5046773;28;20439;-71
2022/10/24 07:20:52;;;;;;;11.82;3.55;;;14.70;99.90;;;;;;5050714;28;20048;-72
2022/10/24 07:23:18;;;;;;;11.25;3.83;;;14.70;99.90;;;;;;5026485;28;20041;-72
2022/10/24 07:25:45;;;;;;;11.63;2.95;;;14.70;99.90;;;;;;5013652;28;20344;-72
2022/10/24 07:28:11;;;;;;;13.43;3.90;;;14.80;99.90;;;;;;5048690;28;20819;-71
2022/10/24 07:30:39;;;;;;;15.75;4.13;;;14.80;99.90;;;;;;5048648;28;20098;-71
2022/10/24 07:33:05;;;;;;;;;;;14.80;99.90;;;;;;5032952;28;20045;-72
2022/10/24 07:35:31;;;;;;;11.65;2.90;;;14.90;99.90;;;;;;5063498;28;19916;-71
2022/10/24 07:37:56;;;;;;;11.15;3.00;;;14.90;99.90;;;;;;5046660;28;20045;-71
2022/10/24 07:40:22;;;;;;;14.32;3.40;;;14.90;99.90;;;;;;5050212;28;20037;-71
2022/10/24 07:42:48;;;;;;;14.27;3.35;;;15.00;99.90;;;;;;5025673;28;20110;-71
2022/10/24 07:45:14;;;;;;;15.25;3.70;;;15.00;99.90;;;;;;5066071;28;20709;-71
2022/10/24 07:47:39;;;;;;;10.10;3.10;;;15.00;99.90;;;;;;5015946;28;20060;-71
2022/10/24 07:50:06;;;;;;;8.45;3.40;;;15.00;99.90;;;;;;5012554;28;20501;-71
2022/10/24 07:52:31;;;;;;;11.95;3.03;;;15.10;99.90;;;;;;5039729;28;20549;-71
2022/10/24 07:54:57;;;;;;;12.32;3.35;;;15.10;99.90;;;;;;5048996;28;20045;-71
2022/10/24 07:57:23;;;;;;;8.57;2.80;;;15.10;99.90;;;;;;5007505;28;20046;-71
2022/10/24 07:59:49;;;;;;;17.13;3.80;;;15.20;99.90;;;;;;5045190;28;20172;-71
2022/10/24 08:02:15;;;;;;;9.50;3.17;;;15.20;99.90;;;;;;5033508;28;20041;-71
2022/10/24 08:04:42;;;;;;;12.38;3.05;;;15.30;99.90;;;;;;5017051;28;20051;-71
2022/10/24 08:07:11;;;;;;;14.18;3.67;;;15.40;99.90;;;;;;5043297;28;20553;-72
2022/10/24 08:09:44;;;;;;;19.48;2.95;;;15.40;99.90;;;;;;5032596;28;20057;-71
2022/10/24 08:12:10;;;;;;;8.80;2.72;;;15.40;99.90;;;;;;5031847;28;20048;-71
2022/10/24 08:14:37;;;;;;;13.13;3.53;;;15.50;99.90;;;;;;5025818;28;20044;-71
2022/10/24 08:17:03;;;;;;;10.88;2.78;;;15.60;99.90;;;;;;5025655;28;20048;-71
2022/10/24 08:19:30;;;;;;;12.52;3.70;;;15.70;99.90;;;;;;5015457;28;20040;-71
2022/10/24 08:21:56;;;;;;;10.25;3.75;;;15.80;99.90;;;;;;5049815;28;20052;-71
2022/10/24 08:24:21;;;;;;;10.50;2.60;;;16.00;99.90;;;;;;5012866;28;20045;-71
2022/10/24 08:26:47;;;;;;;11.73;3.05;;;16.20;99.90;;;;;;5015044;28;20419;-71
2022/10/24 08:29:20;;;;;;;8.93;2.40;;;16.40;99.90;;;;;;5012472;28;20044;-71
2022/10/24 08:31:48;;;;;;;11.75;2.60;;;16.50;99.90;;;;;;5033399;28;20050;-71
2022/10/24 08:34:14;;;;;;;11.20;2.40;;;16.60;99.90;;;;;;5049252;28;20048;-71
2022/10/24 08:36:39;;;;;;;11.65;2.75;;;16.70;99.90;;;;;;5010747;28;20063;-71
2022/10/24 08:39:05;;;;;;;11.98;2.70;;;16.70;99.90;;;;;;5065821;28;20045;-71
2022/10/24 08:41:42;;;;;;;7.72;2.10;;;16.90;99.90;;;;;;5030795;28;20051;-71
2022/10/24 08:44:35;;;;;;;9.07;2.58;;;16.90;99.90;;;;;;5011641;28;20068;-71
2022/10/24 08:47:40;;;;;;;7.07;2.30;;;17.10;99.90;;;;;;5014944;28;20119;-71
2022/10/24 08:50:33;;;;;;;9.38;2.47;;;17.20;99.90;;;;;;5047395;28;20685;-71
2022/10/24 08:53:21;;;;;;;10.52;2.28;;;17.30;99.90;;;;;;5040647;28;20049;-70
2022/10/24 08:55:52;;;;;;;;;;;17.40;99.90;;;;;;5029338;28;20048;-69
2022/10/24 08:58:43;;;;;;;9.82;2.85;;;17.70;99.90;;;;;;5026564;28;19913;-69
2022/10/24 09:01:31;;;;;;;8.50;2.38;;;17.80;99.90;;;;;;5010779;28;20051;-72
2022/10/24 09:03:58;;;;;;;10.75;2.13;;;18.00;99.90;;;;;;5015825;28;20076;-71
2022/10/24 09:06:28;;;;;;;12.35;2.40;;;18.00;99.90;;;;;;5010384;28;20037;-71
2022/10/24 09:09:09;;;;;;;12.57;2.50;;;18.10;99.90;;;;;;5047925;28;20037;-71
2022/10/24 09:11:51;;;;;;;17.77;2.40;;;18.10;99.90;;;;;;5049243;28;20045;-71
2022/10/24 09:14:21;;;;;;;10.52;2.70;;;18.20;99.90;;;;;;5026842;28;20040;-71
2022/10/24 09:16:54;;;;;;;7.38;1.95;;;18.30;99.90;;;;;;5032050;28;20127;-71
2022/10/24 09:19:24;;;;;;;8.23;2.05;;;18.40;99.90;;;;;;5029887;28;20040;-71
2022/10/24 09:21:50;;;;;;;9.55;2.20;;;18.30;99.90;;;;;;5038726;28;20045;-71
2022/10/24 09:24:27;;;;;;;11.18;1.92;;;18.30;99.90;;;;;;5028727;28;20469;-72
2022/10/24 09:26:53;;;;;;;8.23;2.22;;;18.40;99.90;;;;;;5048925;28;20060;-70
2022/10/24 09:29:19;;;;;;;7.38;2.15;;;18.40;99.90;;;;;;5025918;28;20049;-71
2022/10/24 09:31:48;;;;;;;8.57;2.22;;;18.50;99.90;;;;;;5031139;28;20045;-70
2022/10/24 09:34:15;;;;;;;7.15;2.25;;;18.60;99.10;;;;;;5031856;28;20079;-71
2022/10/24 09:36:40;;;;;;;8.35;2.10;;;18.70;99.20;;;;;;5014315;28;20053;-71
2022/10/24 09:39:31;;;;;;;7.22;2.55;;;18.70;99.60;;;;;;5003562;28;20116;-72
2022/10/24 09:41:57;;;;;;;9.40;2.17;;;18.70;98.80;;;;;;5042022;28;20048;-71
2022/10/24 09:44:29;;;;;;;7.53;2.15;;;18.70;99.30;;;;;;5034826;28;20052;-70
2022/10/24 09:46:55;;;;;;;10.07;2.40;;;18.70;99.10;;;;;;5046754;28;20049;-71
2022/10/24 09:49:22;;;;;;;12.40;3.00;;;18.80;99.90;;;;;;5030160;28;20800;-71
2022/10/24 09:52:22;;;;;;;9.45;2.85;;;18.80;99.30;;;;;;5047607;28;20068;-71
2022/10/24 09:55:21;;;;;;;8.38;2.47;;;18.80;98.70;;;;;;5046121;28;20041;-72
2022/10/24 09:57:51;;;;;;;6.70;2.20;;;18.90;98.00;;;;;;5016983;28;20366;-71
2022/10/24 10:00:23;;;;;;;8.57;2.40;;;18.80;98.90;;;;;;5027925;28;20150;-71
2022/10/24 10:03:19;;;;;;;13.88;2.70;;;18.80;98.50;;;;;;5040968;28;20049;-71
2022/10/24 10:05:49;;;;;;;10.93;2.22;;;18.80;98.70;;;;;;5033295;28;20044;-71
2022/10/24 10:08:23;;;;;;;8.65;2.70;;;18.80;98.60;;;;;;5047589;28;20119;-71
2022/10/24 10:10:59;;;;;;;12.95;2.80;;;18.70;99.30;;;;;;5030370;28;20740;-70
2022/10/24 10:13:26;;;;;;;14.40;2.20;;;18.80;99.40;;;;;;5013561;28;20136;-75
2022/10/24 10:15:56;;;;;;;10.15;1.90;;;18.80;98.80;;;;;;5013851;28;20479;-76
2022/10/24 10:18:27;;;;;;;13.10;2.28;;;18.80;99.10;;;;;;5024205;28;20060;-76
2022/10/24 10:20:56;;;;;;;11.38;2.63;;;18.90;98.30;;;;;;5030591;28;20042;-75
2022/10/24 10:23:41;;;;;;;12.00;2.20;;;18.90;98.10;;;;;;5024120;28;20044;-77
2022/10/24 10:26:18;;;;;;;7.57;2.10;;;19.00;98.50;;;;;;5047628;28;20055;-76
2022/10/24 10:28:55;;;;;;;10.27;2.53;;;19.10;97.60;;;;;;5040681;28;20087;-73
2022/10/24 10:31:38;;;;;;;9.60;2.55;;;19.20;97.90;;;;;;5029605;28;20048;-73
2022/10/24 10:34:23;;;;;;;10.13;2.10;;;19.20;97.90;;;;;;5015051;28;20060;-73
2022/10/24 10:37:00;;;;;;;13.45;3.25;;;19.40;96.80;;;;;;5014532;28;20450;-72
2022/10/24 10:39:41;;;;;;;11.77;2.40;;;19.80;96.10;;;;;;5028703;28;20076;-72
2022/10/24 10:42:25;;;;;;;9.45;2.42;;;20.20;95.70;;;;;;5041898;28;20041;-73
2022/10/24 10:45:11;;;;;;;12.60;2.80;;;20.20;95.60;;;;;;5043920;28;20060;-73
2022/10/24 10:47:43;;;;;;;11.77;2.38;;;20.10;95.30;;;;;;5063553;28;20045;-76
2022/10/24 10:50:44;;;;;;;10.85;2.30;;;20.20;94.50;;;;;;5047335;28;20051;-71
2022/10/24 10:53:46;;;;;;;9.93;2.28;;;20.00;94.90;;;;;;5008699;28;20044;-71
2022/10/24 10:56:24;;;;;;;8.18;2.00;;;20.20;95.80;;;;;;5057763;28;20501;-71
2022/10/24 10:59:12;;;;;;;8.77;2.10;;;20.10;95.10;;;;;;5014862;28;20152;-71
2022/10/24 11:01:48;;;;;;;8.73;2.08;;;20.20;95.00;;;;;;5020470;28;20486;-71
2022/10/24 11:04:38;;;;;;;8.88;2.05;;;20.00;95.80;;;;;;5049791;28;20203;-70
2022/10/24 11:07:16;;;;;;;10.43;2.65;;;20.00;95.00;;;;;;5032357;28;20128;-71
2022/10/24 11:09:41;;;;;;;7.75;2.05;;;20.20;95.00;;;;;;5049916;28;20474;-71
2022/10/24 11:12:23;;;;;;;9.52;1.98;;;20.30;94.50;;;;;;5050865;28;20079;-71
2022/10/24 11:14:51;;;;;;;4.65;2.13;;;20.40;94.70;;;;;;5033924;28;20049;-71
2022/10/24 11:17:28;;;;;;;;;;;20.10;94.70;;;;;;5032659;28;20067;-71
2022/10/24 11:20:09;;;;;;;11.65;2.97;;;19.90;95.50;;;;;;5016675;28;19995;-71
2022/10/24 11:22:45;;;;;;;9.73;2.90;;;19.70;96.00;;;;;;5046508;28;20045;-71
2022/10/24 11:25:40;;;;;;;7.53;2.65;;;19.80;96.00;;;;;;5033675;28;20057;-71
2022/10/24 11:28:16;;;;;;;10.25;2.90;;;19.60;95.80;;;;;;5031208;28;20041;-70
2022/10/24 11:30:44;;;;;;;6.72;2.28;;;19.60;95.40;;;;;;5027073;28;20049;-71
2022/10/24 11:33:16;;;;;;;13.18;2.67;;;19.40;96.20;;;;;;5045809;28;20049;-71
2022/10/24 11:36:10;;;;;;;10.38;2.33;;;19.40;96.40;;;;;;5012864;28;20049;-71
2022/10/24 11:38:44;;;;;;;8.00;2.40;;;19.40;96.60;;;;;;5034495;28;20048;-74
2022/10/24 11:41:29;;;;;;;14.52;2.50;;;19.20;96.30;;;;;;5034026;28;20119;-70
2022/10/24 11:43:55;;;;;;;7.43;1.90;;;19.10;96.20;;;;;;5017722;28;20049;-70
2022/10/24 11:46:23;;;;;;;7.68;1.80;;;19.10;96.00;;;;;;5032696;28;20059;-70
2022/10/24 11:49:02;;;;;;;13.30;3.13;;;19.10;96.10;;;;;;5046411;28;20076;-70
2022/10/24 11:51:41;;;;;;;;;;;19.10;96.20;;;;;;5016846;28;20080;-70
2022/10/24 11:54:17;;;;;;;8.45;2.80;;;19.00;95.40;;;;;;5015777;28;19912;-70
2022/10/24 11:56:49;;;;;;;7.00;1.95;;;19.80;94.90;;;;;;5010644;28;20113;-71
2022/10/24 11:59:17;;;;;;;8.30;1.98;;;20.40;93.20;;;;;;5016387;28;20530;-71
2022/10/24 12:02:14;;;;;;;11.90;2.50;;;21.10;92.40;;;;;;5019915;28;20153;-71
2022/10/24 12:05:21;;;;;;;7.43;2.13;;;21.30;90.80;;;;;;5030999;28;20071;-71
2022/10/24 12:07:47;;;;;;;;;;;21.50;91.50;;;;;;5040690;28;20119;-72
2022/10/24 12:10:47;;;;;;;5.43;1.67;;;21.80;90.40;;;;;;5042462;28;19913;-71
2022/10/24 12:13:37;;;;;;;7.53;1.80;;;22.20;88.60;;;;;;5016089;28;20041;-71
2022/10/24 12:16:34;;;;;;;10.38;2.17;;;21.70;88.30;;;;;;5047602;28;20044;-71
2022/10/24 12:19:04;;;;;;;5.57;1.83;;;22.20;87.90;;;;;;5049742;28;20381;-71
2022/10/24 12:22:03;;;;;;;8.38;1.92;;;21.80;86.40;;;;;;5017594;28;20048;-71
2022/10/24 12:24:37;;;;;;;5.13;1.60;;;21.10;90.00;;;;;;5009572;28;20045;-71
2022/10/24 12:27:17;;;;;;;6.20;1.80;;;20.90;90.50;;;;;;5048547;28;20045;-71
2022/10/24 12:29:43;;;;;;;6.47;1.85;;;20.90;90.40;;;;;;5034490;28;20056;-72
2022/10/24 12:32:24;;;;;;;4.60;1.38;;;21.50;88.90;;;;;;5030219;28;20048;-71
2022/10/24 12:34:58;;;;;;;8.07;2.08;;;22.50;86.60;;;;;;5012543;28;20584;-72
2022/10/24 12:37:24;;;;;;;4.97;1.58;;;23.20;84.30;;;;;;5015295;28;20154;-71
2022/10/24 12:39:51;;;;;;;8.02;2.10;;;22.50;84.90;;;;;;5047649;28;20435;-72
2022/10/24 12:42:24;;;;;;;6.32;1.80;;;22.20;85.00;;;;;;5032287;28;20048;-71
2022/10/24 12:44:59;;;;;;;8.77;2.20;;;22.00;86.50;;;;;;5025819;28;20052;-70
2022/10/24 12:47:29;;;;;;;6.00;2.25;;;22.70;83.80;;;;;;5043989;28;20507;-71
2022/10/24 12:49:55;;;;;;;7.78;1.88;;;22.30;84.30;;;;;;5030693;28;20056;-70
2022/10/24 12:52:29;;;;;;;6.00;1.80;;;21.40;86.10;;;;;;5030042;28;20315;-71
2022/10/24 12:54:55;;;;;;;8.32;1.75;;;21.10;88.50;;;;;;5041938;28;20091;-71
2022/10/24 12:57:30;;;;;;;6.30;1.83;;;21.20;88.80;;;;;;5031318;28;20056;-72
2022/10/24 12:59:56;;;;;;;7.82;1.55;;;21.50;88.40;;;;;;5026086;28;20045;-71
2022/10/24 13:02:31;;;;;;;6.47;1.95;;;21.80;85.30;;;;;;5047587;28;20033;-71